sensor_id;sensor_type;location;lat;lon;timestamp;P1;durP1;ratioP1;P2;durP2;ratioP2
74626;SDS011;63132;52.268;5.192;2023-08-01T00:01:27;12.18;;;3.78;;
74626;SDS011;63132;52.268;5.192;2023-08-01T00:03:55;9.55;;;3.47;;
74626;SDS011;63132;52.268;5.192;2023-08-01T00:06:24;15.07;;;3.58;;
74626;SDS011;63132;52.268;5.192;2023-08-01T00:08:50;14.25;;;4.53;;
74626;SDS011;63132;52.268;5.192;2023-08-01T00:11:16;12.80;;;3.55;;
74626;SDS011;63132;52.268;5.192;2023-08-01T00:13:41;12.93;;;3.75;;
74626;SDS011;63132;52.268;5.192;2023-08-01T00:16:08;13.70;;;4.03;;
74626;SDS011;63132;52.268;5.192;2023-08-01T00:18:37;13.52;;;4.10;;
74626;SDS011;63132;52.268;5.192;2023-08-01T00:21:03;11.52;;;3.70;;
74626;SDS011;63132;52.268;5.192;2023-08-01T00:23:30;12.30;;;4.03;;
74626;SDS011;63132;52.268;5.192;2023-08-01T00:25:56;11.63;;;4.18;;
74626;SDS011;63132;52.268;5.192;2023-08-01T00:28:22;10.85;;;4.22;;
74626;SDS011;63132;52.268;5.192;2023-08-01T00:33:13;12.82;;;4.00;;
74626;SDS011;63132;52.268;5.192;2023-08-01T00:35:39;9.30;;;4.15;;
74626;SDS011;63132;52.268;5.192;2023-08-01T00:38:05;17.63;;;5.13;;
74626;SDS011;63132;52.268;5.192;2023-08-01T00:40:30;13.60;;;3.80;;
74626;SDS011;63132;52.268;5.192;2023-08-01T00:42:56;15.80;;;5.53;;
74626;SDS011;63132;52.268;5.192;2023-08-01T00:45:22;14.40;;;4.50;;
74626;SDS011;63132;52.268;5.192;2023-08-01T00:47:50;14.40;;;4.35;;
74626;SDS011;63132;52.268;5.192;2023-08-01T00:50:16;13.63;;;4.78;;
74626;SDS011;63132;52.268;5.192;2023-08-01T00:52:45;16.73;;;4.90;;
74626;SDS011;63132;52.268;5.192;2023-08-01T00:55:15;13.38;;;4.97;;
74626;SDS011;63132;52.268;5.192;2023-08-01T00:57:44;14.38;;;4.82;;
74626;SDS011;63132;52.268;5.192;2023-08-01T01:00:13;21.60;;;5.03;;
74626;SDS011;63132;52.268;5.192;2023-08-01T01:02:39;19.10;;;5.00;;
74626;SDS011;63132;52.268;5.192;2023-08-01T01:05:08;13.82;;;4.90;;
74626;SDS011;63132;52.268;5.192;2023-08-01T01:09:59;18.55;;;4.78;;
74626;SDS011;63132;52.268;5.192;2023-08-01T01:12:25;14.20;;;5.00;;
74626;SDS011;63132;52.268;5.192;2023-08-01T01:14:51;18.33;;;5.40;;
74626;SDS011;63132;52.268;5.192;2023-08-01T01:17:19;14.35;;;4.90;;
74626;SDS011;63132;52.268;5.192;2023-08-01T01:22:12;18.20;;;5.28;;
74626;SDS011;63132;52.268;5.192;2023-08-01T01:24:47;17.25;;;5.30;;
74626;SDS011;63132;52.268;5.192;2023-08-01T01:27:13;21.05;;;5.55;;
74626;SDS011;63132;52.268;5.192;2023-08-01T01:29:41;33.72;;;17.70;;
74626;SDS011;63132;52.268;5.192;2023-08-01T01:32:11;49.08;;;23.13;;
74626;SDS011;63132;52.268;5.192;2023-08-01T01:34:38;20.73;;;5.75;;
74626;SDS011;63132;52.268;5.192;2023-08-01T01:39:29;12.45;;;5.50;;
74626;SDS011;63132;52.268;5.192;2023-08-01T01:44:20;22.27;;;6.18;;
74626;SDS011;63132;52.268;5.192;2023-08-01T01:49:11;20.17;;;5.97;;
74626;SDS011;63132;52.268;5.192;2023-08-01T01:54:02;26.05;;;7.00;;
74626;SDS011;63132;52.268;5.192;2023-08-01T01:56:27;18.30;;;5.78;;
74626;SDS011;63132;52.268;5.192;2023-08-01T01:58:52;18.85;;;6.60;;
74626;SDS011;63132;52.268;5.192;2023-08-01T02:03:43;21.00;;;5.80;;
74626;SDS011;63132;52.268;5.192;2023-08-01T02:06:08;14.43;;;5.38;;
74626;SDS011;63132;52.268;5.192;2023-08-01T02:10:59;25.00;;;6.83;;
74626;SDS011;63132;52.268;5.192;2023-08-01T02:15:53;19.50;;;6.47;;
74626;SDS011;63132;52.268;5.192;2023-08-01T02:20:44;28.95;;;6.45;;
74626;SDS011;63132;52.268;5.192;2023-08-01T02:25:39;20.48;;;7.57;;
74626;SDS011;63132;52.268;5.192;2023-08-01T02:28:05;19.40;;;6.65;;
74626;SDS011;63132;52.268;5.192;2023-08-01T02:30:30;20.50;;;5.78;;
74626;SDS011;63132;52.268;5.192;2023-08-01T02:32:56;19.23;;;6.93;;
74626;SDS011;63132;52.268;5.192;2023-08-01T02:35:21;20.77;;;8.10;;
74626;SDS011;63132;52.268;5.192;2023-08-01T02:37:47;23.30;;;7.07;;
74626;SDS011;63132;52.268;5.192;2023-08-01T02:42:37;17.75;;;6.00;;
74626;SDS011;63132;52.268;5.192;2023-08-01T02:47:28;19.73;;;6.30;;
74626;SDS011;63132;52.268;5.192;2023-08-01T02:52:19;16.80;;;5.60;;
74626;SDS011;63132;52.268;5.192;2023-08-01T02:54:44;20.52;;;5.82;;
74626;SDS011;63132;52.268;5.192;2023-08-01T02:59:35;12.02;;;4.70;;
74626;SDS011;63132;52.268;5.192;2023-08-01T03:02:00;18.35;;;5.13;;
74626;SDS011;63132;52.268;5.192;2023-08-01T03:04:26;17.52;;;5.10;;
74626;SDS011;63132;52.268;5.192;2023-08-01T03:09:17;11.75;;;4.38;;
74626;SDS011;63132;52.268;5.192;2023-08-01T03:11:42;13.60;;;3.95;;
74626;SDS011;63132;52.268;5.192;2023-08-01T03:14:07;17.55;;;4.60;;
74626;SDS011;63132;52.268;5.192;2023-08-01T03:18:58;15.82;;;4.68;;
74626;SDS011;63132;52.268;5.192;2023-08-01T03:21:29;13.82;;;4.90;;
74626;SDS011;63132;52.268;5.192;2023-08-01T03:23:56;15.45;;;4.72;;
74626;SDS011;63132;52.268;5.192;2023-08-01T03:26:22;14.52;;;5.03;;
74626;SDS011;63132;52.268;5.192;2023-08-01T03:28:47;19.95;;;5.10;;
74626;SDS011;63132;52.268;5.192;2023-08-01T03:31:12;13.75;;;4.80;;
74626;SDS011;63132;52.268;5.192;2023-08-01T03:36:03;16.40;;;4.90;;
74626;SDS011;63132;52.268;5.192;2023-08-01T03:38:29;20.33;;;5.45;;
74626;SDS011;63132;52.268;5.192;2023-08-01T03:40:54;14.52;;;5.57;;
74626;SDS011;63132;52.268;5.192;2023-08-01T03:43:20;13.80;;;5.13;;
74626;SDS011;63132;52.268;5.192;2023-08-01T03:45:48;18.10;;;5.68;;
74626;SDS011;63132;52.268;5.192;2023-08-01T03:48:14;19.33;;;5.70;;
74626;SDS011;63132;52.268;5.192;2023-08-01T03:50:39;16.83;;;5.88;;
74626;SDS011;63132;52.268;5.192;2023-08-01T03:53:05;12.70;;;5.07;;
74626;SDS011;63132;52.268;5.192;2023-08-01T03:57:55;21.10;;;5.50;;
74626;SDS011;63132;52.268;5.192;2023-08-01T04:00:21;28.80;;;6.63;;
74626;SDS011;63132;52.268;5.192;2023-08-01T04:02:46;22.45;;;5.63;;
74626;SDS011;63132;52.268;5.192;2023-08-01T04:05:11;19.85;;;5.53;;
74626;SDS011;63132;52.268;5.192;2023-08-01T04:07:37;18.55;;;5.68;;
74626;SDS011;63132;52.268;5.192;2023-08-01T04:10:03;21.38;;;7.35;;
74626;SDS011;63132;52.268;5.192;2023-08-01T04:12:32;25.40;;;5.45;;
74626;SDS011;63132;52.268;5.192;2023-08-01T04:14:58;18.05;;;6.93;;
74626;SDS011;63132;52.268;5.192;2023-08-01T04:17:24;24.35;;;6.45;;
74626;SDS011;63132;52.268;5.192;2023-08-01T04:19:50;16.55;;;6.18;;
74626;SDS011;63132;52.268;5.192;2023-08-01T04:22:15;28.75;;;6.70;;
74626;SDS011;63132;52.268;5.192;2023-08-01T04:24:41;25.38;;;6.53;;
74626;SDS011;63132;52.268;5.192;2023-08-01T04:27:06;23.08;;;7.65;;
74626;SDS011;63132;52.268;5.192;2023-08-01T04:29:32;21.27;;;6.93;;
74626;SDS011;63132;52.268;5.192;2023-08-01T04:31:57;20.15;;;6.95;;
74626;SDS011;63132;52.268;5.192;2023-08-01T04:34:22;25.13;;;7.50;;
74626;SDS011;63132;52.268;5.192;2023-08-01T04:36:48;30.17;;;7.38;;
74626;SDS011;63132;52.268;5.192;2023-08-01T04:39:13;25.17;;;6.88;;
74626;SDS011;63132;52.268;5.192;2023-08-01T04:41:39;23.05;;;7.32;;
74626;SDS011;63132;52.268;5.192;2023-08-01T04:44:04;26.67;;;6.75;;
74626;SDS011;63132;52.268;5.192;2023-08-01T04:46:29;26.48;;;7.95;;
74626;SDS011;63132;52.268;5.192;2023-08-01T04:48:55;25.52;;;7.22;;
74626;SDS011;63132;52.268;5.192;2023-08-01T04:51:20;23.15;;;7.55;;
74626;SDS011;63132;52.268;5.192;2023-08-01T04:53:45;22.50;;;6.70;;
74626;SDS011;63132;52.268;5.192;2023-08-01T04:56:11;27.30;;;6.78;;
74626;SDS011;63132;52.268;5.192;2023-08-01T04:58:36;25.27;;;6.85;;
74626;SDS011;63132;52.268;5.192;2023-08-01T05:01:02;28.52;;;6.90;;
74626;SDS011;63132;52.268;5.192;2023-08-01T05:04:21;25.02;;;5.63;;
74626;SDS011;63132;52.268;5.192;2023-08-01T05:07:45;26.65;;;6.03;;
74626;SDS011;63132;52.268;5.192;2023-08-01T05:11:09;19.88;;;5.45;;
74626;SDS011;63132;52.268;5.192;2023-08-01T05:13:34;18.48;;;6.22;;
74626;SDS011;63132;52.268;5.192;2023-08-01T05:15:59;21.83;;;5.63;;
74626;SDS011;63132;52.268;5.192;2023-08-01T05:18:25;25.00;;;5.45;;
74626;SDS011;63132;52.268;5.192;2023-08-01T05:20:50;16.70;;;6.45;;
74626;SDS011;63132;52.268;5.192;2023-08-01T05:23:16;19.95;;;6.18;;
74626;SDS011;63132;52.268;5.192;2023-08-01T05:25:41;21.27;;;5.82;;
74626;SDS011;63132;52.268;5.192;2023-08-01T05:28:06;19.20;;;5.82;;
74626;SDS011;63132;52.268;5.192;2023-08-01T05:30:32;17.27;;;6.30;;
74626;SDS011;63132;52.268;5.192;2023-08-01T05:32:57;20.50;;;6.30;;
74626;SDS011;63132;52.268;5.192;2023-08-01T05:35:22;18.50;;;5.50;;
74626;SDS011;63132;52.268;5.192;2023-08-01T05:37:48;19.65;;;5.80;;
74626;SDS011;63132;52.268;5.192;2023-08-01T05:40:13;17.98;;;4.90;;
74626;SDS011;63132;52.268;5.192;2023-08-01T05:42:39;14.82;;;5.07;;
74626;SDS011;63132;52.268;5.192;2023-08-01T05:45:04;25.63;;;5.68;;
74626;SDS011;63132;52.268;5.192;2023-08-01T05:47:30;16.70;;;5.45;;
74626;SDS011;63132;52.268;5.192;2023-08-01T05:49:56;18.67;;;5.43;;
74626;SDS011;63132;52.268;5.192;2023-08-01T05:52:21;23.38;;;5.32;;
74626;SDS011;63132;52.268;5.192;2023-08-01T05:54:47;20.38;;;5.40;;
74626;SDS011;63132;52.268;5.192;2023-08-01T05:57:12;21.08;;;5.50;;
74626;SDS011;63132;52.268;5.192;2023-08-01T05:59:38;14.60;;;4.80;;
74626;SDS011;63132;52.268;5.192;2023-08-01T06:02:03;22.90;;;5.10;;
74626;SDS011;63132;52.268;5.192;2023-08-01T06:04:28;18.50;;;4.93;;
74626;SDS011;63132;52.268;5.192;2023-08-01T06:06:54;16.80;;;4.40;;
74626;SDS011;63132;52.268;5.192;2023-08-01T06:09:19;13.90;;;4.68;;
74626;SDS011;63132;52.268;5.192;2023-08-01T06:11:45;15.35;;;5.13;;
74626;SDS011;63132;52.268;5.192;2023-08-01T06:14:10;17.52;;;4.65;;
74626;SDS011;63132;52.268;5.192;2023-08-01T06:16:36;12.93;;;4.82;;
74626;SDS011;63132;52.268;5.192;2023-08-01T06:19:01;20.33;;;5.38;;
74626;SDS011;63132;52.268;5.192;2023-08-01T06:21:27;16.42;;;4.63;;
74626;SDS011;63132;52.268;5.192;2023-08-01T06:23:53;10.82;;;3.88;;
74626;SDS011;63132;52.268;5.192;2023-08-01T06:26:18;13.05;;;3.95;;
74626;SDS011;63132;52.268;5.192;2023-08-01T06:28:44;19.48;;;4.57;;
74626;SDS011;63132;52.268;5.192;2023-08-01T06:31:09;15.55;;;4.35;;
74626;SDS011;63132;52.268;5.192;2023-08-01T06:33:34;18.38;;;4.63;;
74626;SDS011;63132;52.268;5.192;2023-08-01T06:36:00;16.77;;;4.20;;
74626;SDS011;63132;52.268;5.192;2023-08-01T06:38:25;13.93;;;3.90;;
74626;SDS011;63132;52.268;5.192;2023-08-01T06:40:50;20.30;;;4.60;;
74626;SDS011;63132;52.268;5.192;2023-08-01T06:43:16;16.90;;;3.78;;
74626;SDS011;63132;52.268;5.192;2023-08-01T06:45:41;11.63;;;3.35;;
74626;SDS011;63132;52.268;5.192;2023-08-01T06:48:07;11.05;;;3.20;;
74626;SDS011;63132;52.268;5.192;2023-08-01T06:50:33;9.77;;;3.08;;
74626;SDS011;63132;52.268;5.192;2023-08-01T06:52:58;10.02;;;3.13;;
74626;SDS011;63132;52.268;5.192;2023-08-01T06:55:24;15.68;;;3.20;;
74626;SDS011;63132;52.268;5.192;2023-08-01T06:57:49;13.07;;;3.33;;
74626;SDS011;63132;52.268;5.192;2023-08-01T07:00:15;10.20;;;3.50;;
74626;SDS011;63132;52.268;5.192;2023-08-01T07:02:41;8.05;;;2.72;;
74626;SDS011;63132;52.268;5.192;2023-08-01T07:05:06;15.98;;;3.10;;
74626;SDS011;63132;52.268;5.192;2023-08-01T07:07:32;15.55;;;3.00;;
74626;SDS011;63132;52.268;5.192;2023-08-01T07:09:57;11.68;;;2.67;;
74626;SDS011;63132;52.268;5.192;2023-08-01T07:12:23;13.30;;;3.38;;
74626;SDS011;63132;52.268;5.192;2023-08-01T07:14:48;11.10;;;2.95;;
74626;SDS011;63132;52.268;5.192;2023-08-01T07:17:14;12.18;;;3.75;;
74626;SDS011;63132;52.268;5.192;2023-08-01T07:19:39;11.25;;;2.78;;
74626;SDS011;63132;52.268;5.192;2023-08-01T07:22:04;9.98;;;3.00;;
74626;SDS011;63132;52.268;5.192;2023-08-01T07:24:30;11.40;;;2.80;;
74626;SDS011;63132;52.268;5.192;2023-08-01T07:26:55;10.25;;;2.97;;
74626;SDS011;63132;52.268;5.192;2023-08-01T07:29:20;11.35;;;2.85;;
74626;SDS011;63132;52.268;5.192;2023-08-01T07:31:46;9.35;;;2.50;;
74626;SDS011;63132;52.268;5.192;2023-08-01T07:34:11;10.30;;;2.83;;
74626;SDS011;63132;52.268;5.192;2023-08-01T07:36:36;9.55;;;3.05;;
74626;SDS011;63132;52.268;5.192;2023-08-01T07:39:02;5.75;;;2.42;;
74626;SDS011;63132;52.268;5.192;2023-08-01T07:41:28;11.88;;;3.60;;
74626;SDS011;63132;52.268;5.192;2023-08-01T07:43:55;13.57;;;3.33;;
74626;SDS011;63132;52.268;5.192;2023-08-01T07:46:20;13.45;;;3.70;;
74626;SDS011;63132;52.268;5.192;2023-08-01T07:48:45;12.32;;;3.50;;
74626;SDS011;63132;52.268;5.192;2023-08-01T07:51:11;11.88;;;3.22;;
74626;SDS011;63132;52.268;5.192;2023-08-01T07:53:37;12.32;;;3.53;;
74626;SDS011;63132;52.268;5.192;2023-08-01T07:56:02;14.73;;;3.25;;
74626;SDS011;63132;52.268;5.192;2023-08-01T07:58:28;13.77;;;4.38;;
74626;SDS011;63132;52.268;5.192;2023-08-01T08:00:54;13.77;;;3.65;;
74626;SDS011;63132;52.268;5.192;2023-08-01T08:03:20;14.68;;;3.90;;
74626;SDS011;63132;52.268;5.192;2023-08-01T08:05:47;12.88;;;3.20;;
74626;SDS011;63132;52.268;5.192;2023-08-01T08:08:13;8.23;;;2.88;;
74626;SDS011;63132;52.268;5.192;2023-08-01T08:10:39;15.60;;;3.22;;
74626;SDS011;63132;52.268;5.192;2023-08-01T08:13:04;15.85;;;3.45;;
74626;SDS011;63132;52.268;5.192;2023-08-01T08:15:30;15.10;;;4.00;;
74626;SDS011;63132;52.268;5.192;2023-08-01T08:17:59;9.15;;;2.95;;
74626;SDS011;63132;52.268;5.192;2023-08-01T08:20:26;10.98;;;2.92;;
74626;SDS011;63132;52.268;5.192;2023-08-01T08:22:51;13.98;;;3.50;;
74626;SDS011;63132;52.268;5.192;2023-08-01T08:25:17;12.13;;;3.03;;
74626;SDS011;63132;52.268;5.192;2023-08-01T08:27:42;12.80;;;3.67;;
74626;SDS011;63132;52.268;5.192;2023-08-01T08:30:07;12.25;;;2.92;;
74626;SDS011;63132;52.268;5.192;2023-08-01T08:32:34;14.07;;;3.00;;
74626;SDS011;63132;52.268;5.192;2023-08-01T08:35:00;9.00;;;3.50;;
74626;SDS011;63132;52.268;5.192;2023-08-01T08:37:26;10.75;;;2.92;;
74626;SDS011;63132;52.268;5.192;2023-08-01T08:39:51;12.07;;;2.95;;
74626;SDS011;63132;52.268;5.192;2023-08-01T08:42:17;12.18;;;2.97;;
74626;SDS011;63132;52.268;5.192;2023-08-01T08:44:44;14.63;;;2.75;;
74626;SDS011;63132;52.268;5.192;2023-08-01T08:47:13;11.18;;;2.70;;
74626;SDS011;63132;52.268;5.192;2023-08-01T08:49:42;8.60;;;2.78;;
74626;SDS011;63132;52.268;5.192;2023-08-01T08:52:09;9.73;;;2.63;;
74626;SDS011;63132;52.268;5.192;2023-08-01T08:54:35;12.30;;;3.03;;
74626;SDS011;63132;52.268;5.192;2023-08-01T08:57:04;10.63;;;2.95;;
74626;SDS011;63132;52.268;5.192;2023-08-01T08:59:31;10.80;;;2.25;;
74626;SDS011;63132;52.268;5.192;2023-08-01T09:01:58;14.23;;;2.92;;
74626;SDS011;63132;52.268;5.192;2023-08-01T09:04:26;9.40;;;2.90;;
74626;SDS011;63132;52.268;5.192;2023-08-01T09:06:52;10.43;;;2.60;;
74626;SDS011;63132;52.268;5.192;2023-08-01T09:09:23;19.45;;;3.72;;
74626;SDS011;63132;52.268;5.192;2023-08-01T09:11:51;12.95;;;3.15;;
74626;SDS011;63132;52.268;5.192;2023-08-01T09:14:18;8.88;;;2.40;;
74626;SDS011;63132;52.268;5.192;2023-08-01T09:16:45;12.45;;;2.25;;
74626;SDS011;63132;52.268;5.192;2023-08-01T09:19:21;13.48;;;2.47;;
74626;SDS011;63132;52.268;5.192;2023-08-01T09:21:48;7.07;;;2.30;;
74626;SDS011;63132;52.268;5.192;2023-08-01T09:24:15;11.30;;;2.80;;
74626;SDS011;63132;52.268;5.192;2023-08-01T09:26:45;16.33;;;3.05;;
74626;SDS011;63132;52.268;5.192;2023-08-01T09:29:11;9.38;;;2.42;;
74626;SDS011;63132;52.268;5.192;2023-08-01T09:31:40;12.70;;;2.70;;
74626;SDS011;63132;52.268;5.192;2023-08-01T09:34:17;11.55;;;2.63;;
74626;SDS011;63132;52.268;5.192;2023-08-01T09:36:49;11.25;;;2.70;;
74626;SDS011;63132;52.268;5.192;2023-08-01T09:39:19;14.25;;;2.58;;
74626;SDS011;63132;52.268;5.192;2023-08-01T09:41:46;11.05;;;2.75;;
74626;SDS011;63132;52.268;5.192;2023-08-01T09:44:19;8.32;;;2.35;;
74626;SDS011;63132;52.268;5.192;2023-08-01T09:46:54;10.30;;;2.40;;
74626;SDS011;63132;52.268;5.192;2023-08-01T09:49:20;11.05;;;2.30;;
74626;SDS011;63132;52.268;5.192;2023-08-01T09:51:46;10.45;;;2.50;;
74626;SDS011;63132;52.268;5.192;2023-08-01T09:54:13;6.45;;;2.28;;
74626;SDS011;63132;52.268;5.192;2023-08-01T09:56:39;7.57;;;2.40;;
74626;SDS011;63132;52.268;5.192;2023-08-01T09:59:09;7.63;;;2.00;;
74626;SDS011;63132;52.268;5.192;2023-08-01T10:01:35;6.50;;;1.92;;
74626;SDS011;63132;52.268;5.192;2023-08-01T10:04:03;8.65;;;1.73;;
74626;SDS011;63132;52.268;5.192;2023-08-01T10:06:31;6.93;;;1.70;;
74626;SDS011;63132;52.268;5.192;2023-08-01T10:08:58;8.38;;;2.00;;
74626;SDS011;63132;52.268;5.192;2023-08-01T10:11:24;10.65;;;2.47;;
74626;SDS011;63132;52.268;5.192;2023-08-01T10:13:52;10.10;;;2.67;;
74626;SDS011;63132;52.268;5.192;2023-08-01T10:16:18;9.45;;;2.30;;
74626;SDS011;63132;52.268;5.192;2023-08-01T10:18:44;9.18;;;2.50;;
74626;SDS011;63132;52.268;5.192;2023-08-01T10:21:11;10.70;;;2.55;;
74626;SDS011;63132;52.268;5.192;2023-08-01T10:23:38;8.32;;;2.13;;
74626;SDS011;63132;52.268;5.192;2023-08-01T10:26:06;15.88;;;2.65;;
74626;SDS011;63132;52.268;5.192;2023-08-01T10:28:35;15.75;;;2.97;;
74626;SDS011;63132;52.268;5.192;2023-08-01T10:33:38;11.57;;;2.60;;
74626;SDS011;63132;52.268;5.192;2023-08-01T10:36:17;12.10;;;2.78;;
74626;SDS011;63132;52.268;5.192;2023-08-01T10:38:47;11.45;;;2.80;;
74626;SDS011;63132;52.268;5.192;2023-08-01T10:44:03;14.48;;;2.60;;
74626;SDS011;63132;52.268;5.192;2023-08-01T10:46:29;11.05;;;3.08;;
74626;SDS011;63132;52.268;5.192;2023-08-01T10:49:09;7.85;;;2.20;;
74626;SDS011;63132;52.268;5.192;2023-08-01T10:51:35;8.02;;;1.95;;
74626;SDS011;63132;52.268;5.192;2023-08-01T10:54:00;8.02;;;2.17;;
74626;SDS011;63132;52.268;5.192;2023-08-01T10:56:26;13.65;;;2.60;;
74626;SDS011;63132;52.268;5.192;2023-08-01T10:58:51;9.73;;;2.50;;
74626;SDS011;63132;52.268;5.192;2023-08-01T11:01:17;9.50;;;2.15;;
74626;SDS011;63132;52.268;5.192;2023-08-01T11:03:42;5.93;;;2.20;;
74626;SDS011;63132;52.268;5.192;2023-08-01T11:06:09;10.25;;;2.25;;
74626;SDS011;63132;52.268;5.192;2023-08-01T11:08:38;14.10;;;2.35;;
74626;SDS011;63132;52.268;5.192;2023-08-01T11:11:08;13.00;;;2.10;;
74626;SDS011;63132;52.268;5.192;2023-08-01T11:13:39;8.82;;;2.78;;
74626;SDS011;63132;52.268;5.192;2023-08-01T11:16:04;8.25;;;2.00;;
74626;SDS011;63132;52.268;5.192;2023-08-01T11:18:43;9.20;;;2.03;;
74626;SDS011;63132;52.268;5.192;2023-08-01T11:21:09;5.88;;;1.90;;
74626;SDS011;63132;52.268;5.192;2023-08-01T11:23:35;8.18;;;2.03;;
74626;SDS011;63132;52.268;5.192;2023-08-01T11:26:06;10.13;;;2.22;;
74626;SDS011;63132;52.268;5.192;2023-08-01T11:28:32;9.13;;;1.92;;
74626;SDS011;63132;52.268;5.192;2023-08-01T11:30:58;8.18;;;1.60;;
74626;SDS011;63132;52.268;5.192;2023-08-01T11:33:23;9.75;;;2.15;;
74626;SDS011;63132;52.268;5.192;2023-08-01T11:35:50;6.90;;;2.10;;
74626;SDS011;63132;52.268;5.192;2023-08-01T11:38:17;9.88;;;1.90;;
74626;SDS011;63132;52.268;5.192;2023-08-01T11:40:42;12.45;;;2.78;;
74626;SDS011;63132;52.268;5.192;2023-08-01T11:43:08;10.18;;;2.88;;
74626;SDS011;63132;52.268;5.192;2023-08-01T11:45:34;5.88;;;1.90;;
74626;SDS011;63132;52.268;5.192;2023-08-01T11:47:59;9.68;;;2.20;;
74626;SDS011;63132;52.268;5.192;2023-08-01T11:50:25;9.57;;;1.80;;
74626;SDS011;63132;52.268;5.192;2023-08-01T11:52:51;6.20;;;1.90;;
74626;SDS011;63132;52.268;5.192;2023-08-01T11:55:21;10.70;;;2.20;;
74626;SDS011;63132;52.268;5.192;2023-08-01T11:57:54;8.07;;;1.80;;
74626;SDS011;63132;52.268;5.192;2023-08-01T12:00:27;12.60;;;2.00;;
74626;SDS011;63132;52.268;5.192;2023-08-01T12:03:03;8.23;;;2.03;;
74626;SDS011;63132;52.268;5.192;2023-08-01T12:05:39;9.70;;;2.08;;
74626;SDS011;63132;52.268;5.192;2023-08-01T12:08:13;14.98;;;2.80;;
74626;SDS011;63132;52.268;5.192;2023-08-01T12:10:42;13.65;;;2.58;;
74626;SDS011;63132;52.268;5.192;2023-08-01T12:13:21;7.03;;;1.90;;
74626;SDS011;63132;52.268;5.192;2023-08-01T12:15:48;10.05;;;2.00;;
74626;SDS011;63132;52.268;5.192;2023-08-01T12:18:25;5.78;;;1.83;;
74626;SDS011;63132;52.268;5.192;2023-08-01T12:20:50;8.88;;;2.45;;
74626;SDS011;63132;52.268;5.192;2023-08-01T12:23:16;7.65;;;2.20;;
74626;SDS011;63132;52.268;5.192;2023-08-01T12:25:41;7.50;;;1.70;;
74626;SDS011;63132;52.268;5.192;2023-08-01T12:28:07;10.15;;;2.55;;
74626;SDS011;63132;52.268;5.192;2023-08-01T12:30:32;8.75;;;2.13;;
74626;SDS011;63132;52.268;5.192;2023-08-01T12:32:57;10.60;;;2.40;;
74626;SDS011;63132;52.268;5.192;2023-08-01T12:35:23;8.98;;;1.95;;
74626;SDS011;63132;52.268;5.192;2023-08-01T12:37:48;8.63;;;2.00;;
74626;SDS011;63132;52.268;5.192;2023-08-01T12:40:15;6.88;;;1.70;;
74626;SDS011;63132;52.268;5.192;2023-08-01T12:42:40;7.97;;;1.90;;
74626;SDS011;63132;52.268;5.192;2023-08-01T12:45:06;7.85;;;1.75;;
74626;SDS011;63132;52.268;5.192;2023-08-01T12:47:32;6.35;;;1.63;;
74626;SDS011;63132;52.268;5.192;2023-08-01T12:49:57;8.15;;;2.33;;
74626;SDS011;63132;52.268;5.192;2023-08-01T12:52:23;4.10;;;1.15;;
74626;SDS011;63132;52.268;5.192;2023-08-01T12:54:49;5.00;;;1.30;;
74626;SDS011;63132;52.268;5.192;2023-08-01T12:57:15;5.65;;;0.98;;
74626;SDS011;63132;52.268;5.192;2023-08-01T12:59:40;6.63;;;1.27;;
74626;SDS011;63132;52.268;5.192;2023-08-01T13:02:06;6.53;;;1.58;;
74626;SDS011;63132;52.268;5.192;2023-08-01T13:04:33;5.80;;;1.63;;
74626;SDS011;63132;52.268;5.192;2023-08-01T13:06:59;4.60;;;1.45;;
74626;SDS011;63132;52.268;5.192;2023-08-01T13:09:24;9.43;;;2.65;;
74626;SDS011;63132;52.268;5.192;2023-08-01T13:11:49;6.38;;;2.05;;
74626;SDS011;63132;52.268;5.192;2023-08-01T13:14:15;8.27;;;1.75;;
74626;SDS011;63132;52.268;5.192;2023-08-01T13:16:40;8.15;;;1.65;;
74626;SDS011;63132;52.268;5.192;2023-08-01T13:19:06;6.35;;;2.17;;
74626;SDS011;63132;52.268;5.192;2023-08-01T13:21:32;10.55;;;2.55;;
74626;SDS011;63132;52.268;5.192;2023-08-01T13:23:59;10.38;;;2.05;;
74626;SDS011;63132;52.268;5.192;2023-08-01T13:26:29;8.75;;;2.38;;
74626;SDS011;63132;52.268;5.192;2023-08-01T13:28:55;8.15;;;2.15;;
74626;SDS011;63132;52.268;5.192;2023-08-01T13:31:21;5.57;;;1.98;;
74626;SDS011;63132;52.268;5.192;2023-08-01T13:33:46;9.50;;;2.35;;
74626;SDS011;63132;52.268;5.192;2023-08-01T13:36:12;10.10;;;2.13;;
74626;SDS011;63132;52.268;5.192;2023-08-01T13:38:37;8.77;;;2.10;;
74626;SDS011;63132;52.268;5.192;2023-08-01T13:41:03;8.13;;;1.90;;
74626;SDS011;63132;52.268;5.192;2023-08-01T13:43:28;14.00;;;2.60;;
74626;SDS011;63132;52.268;5.192;2023-08-01T13:45:54;12.45;;;2.72;;
74626;SDS011;63132;52.268;5.192;2023-08-01T13:48:19;15.27;;;2.90;;
74626;SDS011;63132;52.268;5.192;2023-08-01T13:50:45;13.65;;;2.47;;
74626;SDS011;63132;52.268;5.192;2023-08-01T13:53:10;10.70;;;3.03;;
74626;SDS011;63132;52.268;5.192;2023-08-01T13:55:38;6.40;;;2.53;;
74626;SDS011;63132;52.268;5.192;2023-08-01T13:58:04;7.05;;;2.40;;
74626;SDS011;63132;52.268;5.192;2023-08-01T14:00:30;11.95;;;2.40;;
74626;SDS011;63132;52.268;5.192;2023-08-01T14:02:56;10.82;;;2.85;;
74626;SDS011;63132;52.268;5.192;2023-08-01T14:05:24;5.90;;;2.42;;
74626;SDS011;63132;52.268;5.192;2023-08-01T14:07:50;6.00;;;2.22;;
74626;SDS011;63132;52.268;5.192;2023-08-01T14:10:15;11.18;;;2.70;;
74626;SDS011;63132;52.268;5.192;2023-08-01T14:12:41;7.63;;;2.17;;
74626;SDS011;63132;52.268;5.192;2023-08-01T14:15:07;15.57;;;2.88;;
74626;SDS011;63132;52.268;5.192;2023-08-01T14:17:33;12.25;;;2.45;;
74626;SDS011;63132;52.268;5.192;2023-08-01T14:19:59;10.00;;;1.92;;
74626;SDS011;63132;52.268;5.192;2023-08-01T14:22:24;7.88;;;2.00;;
74626;SDS011;63132;52.268;5.192;2023-08-01T14:24:49;7.70;;;2.20;;
74626;SDS011;63132;52.268;5.192;2023-08-01T14:27:15;7.68;;;1.88;;
74626;SDS011;63132;52.268;5.192;2023-08-01T14:29:40;4.65;;;1.80;;
74626;SDS011;63132;52.268;5.192;2023-08-01T14:32:06;3.50;;;1.20;;
74626;SDS011;63132;52.268;5.192;2023-08-01T14:34:31;3.17;;;1.30;;
74626;SDS011;63132;52.268;5.192;2023-08-01T14:36:57;7.40;;;1.73;;
74626;SDS011;63132;52.268;5.192;2023-08-01T14:39:22;7.05;;;1.83;;
74626;SDS011;63132;52.268;5.192;2023-08-01T14:41:48;6.75;;;1.80;;
74626;SDS011;63132;52.268;5.192;2023-08-01T14:44:13;5.40;;;1.55;;
74626;SDS011;63132;52.268;5.192;2023-08-01T14:46:39;5.75;;;1.90;;
74626;SDS011;63132;52.268;5.192;2023-08-01T14:49:04;7.95;;;2.20;;
74626;SDS011;63132;52.268;5.192;2023-08-01T14:51:29;8.00;;;2.05;;
74626;SDS011;63132;52.268;5.192;2023-08-01T14:53:55;5.68;;;2.47;;
74626;SDS011;63132;52.268;5.192;2023-08-01T14:56:20;8.75;;;2.40;;
74626;SDS011;63132;52.268;5.192;2023-08-01T14:58:45;6.07;;;2.00;;
74626;SDS011;63132;52.268;5.192;2023-08-01T15:01:11;3.92;;;1.80;;
74626;SDS011;63132;52.268;5.192;2023-08-01T15:03:38;7.07;;;2.10;;
74626;SDS011;63132;52.268;5.192;2023-08-01T15:06:07;8.13;;;1.98;;
74626;SDS011;63132;52.268;5.192;2023-08-01T15:08:33;9.45;;;2.75;;
74626;SDS011;63132;52.268;5.192;2023-08-01T15:11:02;6.65;;;1.75;;
74626;SDS011;63132;52.268;5.192;2023-08-01T15:13:29;7.28;;;2.20;;
74626;SDS011;63132;52.268;5.192;2023-08-01T15:15:55;8.15;;;1.98;;
74626;SDS011;63132;52.268;5.192;2023-08-01T15:18:20;5.60;;;1.52;;
74626;SDS011;63132;52.268;5.192;2023-08-01T15:20:45;3.58;;;1.48;;
74626;SDS011;63132;52.268;5.192;2023-08-01T15:23:11;3.30;;;1.63;;
74626;SDS011;63132;52.268;5.192;2023-08-01T15:25:36;5.43;;;1.60;;
74626;SDS011;63132;52.268;5.192;2023-08-01T15:28:02;7.28;;;1.90;;
74626;SDS011;63132;52.268;5.192;2023-08-01T15:30:27;11.50;;;2.03;;